sensor_id;sensor_type;location;lat;lon;timestamp;temperature;humidity
72814;DHT22;60945;48.516;-2.768;2024-03-22T00:00:41;12.20;85.70
72814;DHT22;60945;48.516;-2.768;2024-03-22T00:03:07;12.30;84.80
72814;DHT22;60945;48.516;-2.768;2024-03-22T00:05:33;12.30;85.00
72814;DHT22;60945;48.516;-2.768;2024-03-22T00:07:58;12.20;85.40
72814;DHT22;60945;48.516;-2.768;2024-03-22T00:10:24;12.10;85.30
72814;DHT22;60945;48.516;-2.768;2024-03-22T00:12:50;11.90;86.70
72814;DHT22;60945;48.516;-2.768;2024-03-22T00:15:16;11.90;86.90
72814;DHT22;60945;48.516;-2.768;2024-03-22T00:17:44;11.80;87.40
72814;DHT22;60945;48.516;-2.768;2024-03-22T00:20:10;11.90;87.40
72814;DHT22;60945;48.516;-2.768;2024-03-22T00:22:36;12.10;86.40
72814;DHT22;60945;48.516;-2.768;2024-03-22T00:25:01;12.00;86.10
72814;DHT22;60945;48.516;-2.768;2024-03-22T00:27:30;11.90;86.70
72814;DHT22;60945;48.516;-2.768;2024-03-22T00:29:55;11.90;87.30
72814;DHT22;60945;48.516;-2.768;2024-03-22T00:32:21;12.20;86.20
72814;DHT22;60945;48.516;-2.768;2024-03-22T00:34:46;12.20;85.40
72814;DHT22;60945;48.516;-2.768;2024-03-22T00:37:12;12.10;85.80
72814;DHT22;60945;48.516;-2.768;2024-03-22T00:39:38;11.70;87.50
72814;DHT22;60945;48.516;-2.768;2024-03-22T00:42:03;11.70;88.20
72814;DHT22;60945;48.516;-2.768;2024-03-22T00:44:29;11.10;89.70
72814;DHT22;60945;48.516;-2.768;2024-03-22T00:46:55;11.20;91.40
72814;DHT22;60945;48.516;-2.768;2024-03-22T00:49:20;11.40;89.60
72814;DHT22;60945;48.516;-2.768;2024-03-22T00:51:46;11.50;89.30
72814;DHT22;60945;48.516;-2.768;2024-03-22T00:54:12;11.70;88.10
72814;DHT22;60945;48.516;-2.768;2024-03-22T00:56:38;11.90;87.60
72814;DHT22;60945;48.516;-2.768;2024-03-22T00:59:04;12.00;86.80
72814;DHT22;60945;48.516;-2.768;2024-03-22T01:01:29;11.50;87.80
72814;DHT22;60945;48.516;-2.768;2024-03-22T01:03:55;11.40;89.90
72814;DHT22;60945;48.516;-2.768;2024-03-22T01:06:21;11.40;90.10
72814;DHT22;60945;48.516;-2.768;2024-03-22T01:08:50;11.20;91.10
72814;DHT22;60945;48.516;-2.768;2024-03-22T01:11:17;11.30;91.40
72814;DHT22;60945;48.516;-2.768;2024-03-22T01:13:43;11.40;90.70
72814;DHT22;60945;48.516;-2.768;2024-03-22T01:16:09;11.60;90.10
72814;DHT22;60945;48.516;-2.768;2024-03-22T01:18:35;11.90;88.30
72814;DHT22;60945;48.516;-2.768;2024-03-22T01:21:01;12.00;87.80
72814;DHT22;60945;48.516;-2.768;2024-03-22T01:23:27;12.10;87.40
72814;DHT22;60945;48.516;-2.768;2024-03-22T01:25:53;12.10;87.00
72814;DHT22;60945;48.516;-2.768;2024-03-22T01:28:19;12.10;86.50
72814;DHT22;60945;48.516;-2.768;2024-03-22T01:30:44;11.70;87.60
72814;DHT22;60945;48.516;-2.768;2024-03-22T01:33:10;11.60;89.30
72814;DHT22;60945;48.516;-2.768;2024-03-22T01:35:36;12.00;87.80
72814;DHT22;60945;48.516;-2.768;2024-03-22T01:38:01;12.00;87.10
72814;DHT22;60945;48.516;-2.768;2024-03-22T01:40:27;12.20;86.40
72814;DHT22;60945;48.516;-2.768;2024-03-22T01:42:55;12.30;86.20
72814;DHT22;60945;48.516;-2.768;2024-03-22T01:45:21;12.30;85.30
72814;DHT22;60945;48.516;-2.768;2024-03-22T01:47:53;12.20;85.60
72814;DHT22;60945;48.516;-2.768;2024-03-22T01:50:23;12.30;84.80
72814;DHT22;60945;48.516;-2.768;2024-03-22T01:52:48;12.10;85.40
72814;DHT22;60945;48.516;-2.768;2024-03-22T01:55:14;12.00;85.40
72814;DHT22;60945;48.516;-2.768;2024-03-22T01:57:40;12.10;85.30
72814;DHT22;60945;48.516;-2.768;2024-03-22T02:00:08;11.80;85.80
72814;DHT22;60945;48.516;-2.768;2024-03-22T02:02:34;11.80;86.70
72814;DHT22;60945;48.516;-2.768;2024-03-22T02:05:11;11.60;87.60
72814;DHT22;60945;48.516;-2.768;2024-03-22T02:07:36;11.60;88.10
72814;DHT22;60945;48.516;-2.768;2024-03-22T02:10:02;11.70;88.50
72814;DHT22;60945;48.516;-2.768;2024-03-22T02:12:28;11.80;88.10
72814;DHT22;60945;48.516;-2.768;2024-03-22T02:14:53;12.00;87.60
72814;DHT22;60945;48.516;-2.768;2024-03-22T02:17:23;12.20;86.40
72814;DHT22;60945;48.516;-2.768;2024-03-22T02:19:49;12.20;85.80
72814;DHT22;60945;48.516;-2.768;2024-03-22T02:22:14;12.10;86.00
72814;DHT22;60945;48.516;-2.768;2024-03-22T02:24:40;12.20;85.70
72814;DHT22;60945;48.516;-2.768;2024-03-22T02:27:05;12.20;84.50
72814;DHT22;60945;48.516;-2.768;2024-03-22T02:29:31;11.90;85.70
72814;DHT22;60945;48.516;-2.768;2024-03-22T02:31:57;11.90;85.60
72814;DHT22;60945;48.516;-2.768;2024-03-22T02:34:23;12.10;84.80
72814;DHT22;60945;48.516;-2.768;2024-03-22T02:36:49;12.20;83.80
72814;DHT22;60945;48.516;-2.768;2024-03-22T02:39:15;12.30;82.50
72814;DHT22;60945;48.516;-2.768;2024-03-22T02:41:40;12.30;82.70
72814;DHT22;60945;48.516;-2.768;2024-03-22T02:44:06;12.30;82.70
72814;DHT22;60945;48.516;-2.768;2024-03-22T02:46:32;12.20;82.60
72814;DHT22;60945;48.516;-2.768;2024-03-22T02:48:58;12.10;82.90
72814;DHT22;60945;48.516;-2.768;2024-03-22T02:51:23;12.10;82.70
72814;DHT22;60945;48.516;-2.768;2024-03-22T02:53:50;12.00;82.70
72814;DHT22;60945;48.516;-2.768;2024-03-22T02:56:15;12.00;83.10
72814;DHT22;60945;48.516;-2.768;2024-03-22T02:58:41;12.00;83.10
72814;DHT22;60945;48.516;-2.768;2024-03-22T03:01:07;11.90;83.20
72814;DHT22;60945;48.516;-2.768;2024-03-22T03:03:32;11.90;83.20
72814;DHT22;60945;48.516;-2.768;2024-03-22T03:05:58;12.00;82.60
72814;DHT22;60945;48.516;-2.768;2024-03-22T03:08:23;12.00;82.60
72814;DHT22;60945;48.516;-2.768;2024-03-22T03:10:49;11.80;82.70
72814;DHT22;60945;48.516;-2.768;2024-03-22T03:13:15;12.00;81.90
72814;DHT22;60945;48.516;-2.768;2024-03-22T03:15:41;12.00;81.40
72814;DHT22;60945;48.516;-2.768;2024-03-22T03:18:06;12.00;80.90
72814;DHT22;60945;48.516;-2.768;2024-03-22T03:20:32;11.90;80.70
72814;DHT22;60945;48.516;-2.768;2024-03-22T03:22:58;12.00;80.00
72814;DHT22;60945;48.516;-2.768;2024-03-22T03:25:25;12.00;79.70
72814;DHT22;60945;48.516;-2.768;2024-03-22T03:27:51;11.90;79.70
72814;DHT22;60945;48.516;-2.768;2024-03-22T03:30:17;11.80;80.60
72814;DHT22;60945;48.516;-2.768;2024-03-22T03:32:43;11.80;80.00
72814;DHT22;60945;48.516;-2.768;2024-03-22T03:35:08;11.70;80.30
72814;DHT22;60945;48.516;-2.768;2024-03-22T03:37:34;11.60;80.60
72814;DHT22;60945;48.516;-2.768;2024-03-22T03:40:00;11.60;80.90
72814;DHT22;60945;48.516;-2.768;2024-03-22T03:42:25;11.60;81.10
72814;DHT22;60945;48.516;-2.768;2024-03-22T03:44:51;11.60;80.50
72814;DHT22;60945;48.516;-2.768;2024-03-22T03:47:17;11.40;81.20
72814;DHT22;60945;48.516;-2.768;2024-03-22T03:49:44;11.00;81.70
72814;DHT22;60945;48.516;-2.768;2024-03-22T03:52:10;11.00;82.70
72814;DHT22;60945;48.516;-2.768;2024-03-22T03:54:35;11.20;83.30
72814;DHT22;60945;48.516;-2.768;2024-03-22T03:57:01;11.40;82.30
72814;DHT22;60945;48.516;-2.768;2024-03-22T03:59:27;11.70;81.10
72814;DHT22;60945;48.516;-2.768;2024-03-22T04:01:52;11.70;80.20
72814;DHT22;60945;48.516;-2.768;2024-03-22T04:04:18;11.60;79.20
72814;DHT22;60945;48.516;-2.768;2024-03-22T04:06:44;11.60;79.80
72814;DHT22;60945;48.516;-2.768;2024-03-22T04:09:10;11.50;79.60
72814;DHT22;60945;48.516;-2.768;2024-03-22T04:11:35;11.50;80.00
72814;DHT22;60945;48.516;-2.768;2024-03-22T04:14:03;11.50;80.20
72814;DHT22;60945;48.516;-2.768;2024-03-22T04:16:29;11.70;80.60
72814;DHT22;60945;48.516;-2.768;2024-03-22T04:18:57;11.80;79.40
72814;DHT22;60945;48.516;-2.768;2024-03-22T04:21:23;11.90;78.60
72814;DHT22;60945;48.516;-2.768;2024-03-22T04:23:49;11.80;78.40
72814;DHT22;60945;48.516;-2.768;2024-03-22T04:26:15;11.80;78.20
72814;DHT22;60945;48.516;-2.768;2024-03-22T04:28:40;11.60;78.40
72814;DHT22;60945;48.516;-2.768;2024-03-22T04:31:08;11.60;79.10
72814;DHT22;60945;48.516;-2.768;2024-03-22T04:33:34;11.60;79.00
72814;DHT22;60945;48.516;-2.768;2024-03-22T04:36:01;11.60;78.90
72814;DHT22;60945;48.516;-2.768;2024-03-22T04:38:27;11.60;79.40
72814;DHT22;60945;48.516;-2.768;2024-03-22T04:40:53;11.40;79.30
72814;DHT22;60945;48.516;-2.768;2024-03-22T04:43:20;11.30;79.60
72814;DHT22;60945;48.516;-2.768;2024-03-22T04:45:47;11.40;78.80
72814;DHT22;60945;48.516;-2.768;2024-03-22T04:48:18;11.40;79.00
72814;DHT22;60945;48.516;-2.768;2024-03-22T04:50:51;11.50;79.20
72814;DHT22;60945;48.516;-2.768;2024-03-22T04:53:18;11.80;78.30
72814;DHT22;60945;48.516;-2.768;2024-03-22T04:55:44;11.60;79.00
72814;DHT22;60945;48.516;-2.768;2024-03-22T04:58:17;11.70;78.20
72814;DHT22;60945;48.516;-2.768;2024-03-22T05:00:43;11.70;78.70
72814;DHT22;60945;48.516;-2.768;2024-03-22T05:03:09;11.70;78.50
72814;DHT22;60945;48.516;-2.768;2024-03-22T05:05:36;11.80;78.40
72814;DHT22;60945;48.516;-2.768;2024-03-22T05:08:02;11.80;78.40
72814;DHT22;60945;48.516;-2.768;2024-03-22T05:10:28;11.70;78.80
72814;DHT22;60945;48.516;-2.768;2024-03-22T05:12:55;11.60;78.90
72814;DHT22;60945;48.516;-2.768;2024-03-22T05:15:21;11.70;78.90
72814;DHT22;60945;48.516;-2.768;2024-03-22T05:17:46;11.70;78.50
72814;DHT22;60945;48.516;-2.768;2024-03-22T05:20:12;11.50;79.40
72814;DHT22;60945;48.516;-2.768;2024-03-22T05:22:38;11.40;79.90
72814;DHT22;60945;48.516;-2.768;2024-03-22T05:25:04;11.50;79.70
72814;DHT22;60945;48.516;-2.768;2024-03-22T05:27:33;11.60;78.60
72814;DHT22;60945;48.516;-2.768;2024-03-22T05:29:59;11.60;77.90
72814;DHT22;60945;48.516;-2.768;2024-03-22T05:32:25;11.70;78.10
72814;DHT22;60945;48.516;-2.768;2024-03-22T05:34:51;11.70;76.80
72814;DHT22;60945;48.516;-2.768;2024-03-22T05:37:17;11.70;77.00
72814;DHT22;60945;48.516;-2.768;2024-03-22T05:39:42;11.60;77.40
72814;DHT22;60945;48.516;-2.768;2024-03-22T05:42:08;11.70;76.80
72814;DHT22;60945;48.516;-2.768;2024-03-22T05:44:35;11.70;76.80
72814;DHT22;60945;48.516;-2.768;2024-03-22T05:47:01;11.50;77.00
72814;DHT22;60945;48.516;-2.768;2024-03-22T05:49:27;11.50;77.20
72814;DHT22;60945;48.516;-2.768;2024-03-22T05:51:53;11.60;76.80
72814;DHT22;60945;48.516;-2.768;2024-03-22T05:54:18;11.50;76.40
72814;DHT22;60945;48.516;-2.768;2024-03-22T05:56:45;11.30;76.10
72814;DHT22;60945;48.516;-2.768;2024-03-22T05:59:11;11.10;77.50
72814;DHT22;60945;48.516;-2.768;2024-03-22T06:01:37;11.10;78.70
72814;DHT22;60945;48.516;-2.768;2024-03-22T06:04:04;11.20;78.10
72814;DHT22;60945;48.516;-2.768;2024-03-22T06:06:34;11.20;78.40
72814;DHT22;60945;48.516;-2.768;2024-03-22T06:08:59;11.20;77.90
72814;DHT22;60945;48.516;-2.768;2024-03-22T06:11:28;11.20;77.40
72814;DHT22;60945;48.516;-2.768;2024-03-22T06:13:54;11.30;77.30
72814;DHT22;60945;48.516;-2.768;2024-03-22T06:16:20;11.30;77.00
72814;DHT22;60945;48.516;-2.768;2024-03-22T06:18:46;11.20;77.20
72814;DHT22;60945;48.516;-2.768;2024-03-22T06:21:11;11.20;77.00
72814;DHT22;60945;48.516;-2.768;2024-03-22T06:23:40;11.30;76.70
72814;DHT22;60945;48.516;-2.768;2024-03-22T06:26:05;11.10;77.50
72814;DHT22;60945;48.516;-2.768;2024-03-22T06:28:31;11.10;77.10
72814;DHT22;60945;48.516;-2.768;2024-03-22T06:30:56;11.20;77.00
72814;DHT22;60945;48.516;-2.768;2024-03-22T06:33:22;11.30;77.10
72814;DHT22;60945;48.516;-2.768;2024-03-22T06:35:48;11.20;77.30
72814;DHT22;60945;48.516;-2.768;2024-03-22T06:38:14;11.10;77.60
72814;DHT22;60945;48.516;-2.768;2024-03-22T06:40:39;11.30;76.80
72814;DHT22;60945;48.516;-2.768;2024-03-22T06:43:05;11.10;77.00
72814;DHT22;60945;48.516;-2.768;2024-03-22T06:45:31;11.20;76.40
72814;DHT22;60945;48.516;-2.768;2024-03-22T06:47:56;11.10;77.10
72814;DHT22;60945;48.516;-2.768;2024-03-22T06:50:22;11.10;77.40
72814;DHT22;60945;48.516;-2.768;2024-03-22T06:52:51;11.10;77.00
72814;DHT22;60945;48.516;-2.768;2024-03-22T06:55:19;11.40;75.40
72814;DHT22;60945;48.516;-2.768;2024-03-22T06:57:46;11.50;74.30
72814;DHT22;60945;48.516;-2.768;2024-03-22T07:00:12;11.60;74.10
72814;DHT22;60945;48.516;-2.768;2024-03-22T07:02:39;11.60;73.50
72814;DHT22;60945;48.516;-2.768;2024-03-22T07:05:06;11.40;74.40
72814;DHT22;60945;48.516;-2.768;2024-03-22T07:07:31;11.50;73.80
72814;DHT22;60945;48.516;-2.768;2024-03-22T07:09:57;11.60;74.10
72814;DHT22;60945;48.516;-2.768;2024-03-22T07:12:22;11.40;73.40
72814;DHT22;60945;48.516;-2.768;2024-03-22T07:14:48;11.30;74.50
72814;DHT22;60945;48.516;-2.768;2024-03-22T07:17:14;11.40;73.80
72814;DHT22;60945;48.516;-2.768;2024-03-22T07:19:40;11.60;72.70
72814;DHT22;60945;48.516;-2.768;2024-03-22T07:22:06;11.70;73.00
72814;DHT22;60945;48.516;-2.768;2024-03-22T07:24:32;11.80;72.60
72814;DHT22;60945;48.516;-2.768;2024-03-22T07:26:58;11.80;72.00
72814;DHT22;60945;48.516;-2.768;2024-03-22T07:29:23;11.60;72.50
72814;DHT22;60945;48.516;-2.768;2024-03-22T07:31:49;11.70;73.20
72814;DHT22;60945;48.516;-2.768;2024-03-22T07:34:15;11.80;72.40
72814;DHT22;60945;48.516;-2.768;2024-03-22T07:36:40;12.00;71.60
72814;DHT22;60945;48.516;-2.768;2024-03-22T07:39:06;12.10;71.10
72814;DHT22;60945;48.516;-2.768;2024-03-22T07:41:33;12.30;71.10
72814;DHT22;60945;48.516;-2.768;2024-03-22T07:44:01;12.40;69.80
72814;DHT22;60945;48.516;-2.768;2024-03-22T07:46:28;12.50;69.80
72814;DHT22;60945;48.516;-2.768;2024-03-22T07:48:54;12.70;68.50
72814;DHT22;60945;48.516;-2.768;2024-03-22T07:51:22;12.60;69.40
72814;DHT22;60945;48.516;-2.768;2024-03-22T07:53:48;12.20;69.30
72814;DHT22;60945;48.516;-2.768;2024-03-22T07:56:14;11.80;70.60
72814;DHT22;60945;48.516;-2.768;2024-03-22T07:58:41;11.60;71.90
72814;DHT22;60945;48.516;-2.768;2024-03-22T08:01:08;11.50;71.90
72814;DHT22;60945;48.516;-2.768;2024-03-22T08:03:34;11.80;71.10
72814;DHT22;60945;48.516;-2.768;2024-03-22T08:06:00;12.30;70.10
72814;DHT22;60945;48.516;-2.768;2024-03-22T08:08:25;12.70;67.90
72814;DHT22;60945;48.516;-2.768;2024-03-22T08:10:51;13.10;67.20
72814;DHT22;60945;48.516;-2.768;2024-03-22T08:13:17;13.00;66.80
72814;DHT22;60945;48.516;-2.768;2024-03-22T08:15:43;12.90;66.90
72814;DHT22;60945;48.516;-2.768;2024-03-22T08:18:11;12.70;67.90
72814;DHT22;60945;48.516;-2.768;2024-03-22T08:20:36;12.40;68.70
72814;DHT22;60945;48.516;-2.768;2024-03-22T08:23:04;12.80;66.70
72814;DHT22;60945;48.516;-2.768;2024-03-22T08:25:30;13.00;65.70
72814;DHT22;60945;48.516;-2.768;2024-03-22T08:27:56;13.20;65.00
72814;DHT22;60945;48.516;-2.768;2024-03-22T08:30:22;13.40;64.70
72814;DHT22;60945;48.516;-2.768;2024-03-22T08:32:48;13.40;64.60
72814;DHT22;60945;48.516;-2.768;2024-03-22T08:35:14;13.80;62.90
72814;DHT22;60945;48.516;-2.768;2024-03-22T08:37:39;14.60;62.00
72814;DHT22;60945;48.516;-2.768;2024-03-22T08:40:06;14.80;60.80
72814;DHT22;60945;48.516;-2.768;2024-03-22T08:42:33;15.20;58.20
72814;DHT22;60945;48.516;-2.768;2024-03-22T08:44:58;15.60;57.50
72814;DHT22;60945;48.516;-2.768;2024-03-22T08:47:25;14.60;58.40
72814;DHT22;60945;48.516;-2.768;2024-03-22T08:49:51;14.40;60.40
72814;DHT22;60945;48.516;-2.768;2024-03-22T08:52:16;14.00;59.30
72814;DHT22;60945;48.516;-2.768;2024-03-22T08:54:42;14.30;59.50
72814;DHT22;60945;48.516;-2.768;2024-03-22T08:57:08;15.40;57.30
72814;DHT22;60945;48.516;-2.768;2024-03-22T08:59:33;15.30;55.90
72814;DHT22;60945;48.516;-2.768;2024-03-22T09:02:00;14.70;58.80
72814;DHT22;60945;48.516;-2.768;2024-03-22T09:04:26;16.20;56.00
72814;DHT22;60945;48.516;-2.768;2024-03-22T09:06:52;17.10;52.80
72814;DHT22;60945;48.516;-2.768;2024-03-22T09:09:17;16.60;54.00
72814;DHT22;60945;48.516;-2.768;2024-03-22T09:11:43;17.90;51.40
72814;DHT22;60945;48.516;-2.768;2024-03-22T09:14:09;17.40;49.00
72814;DHT22;60945;48.516;-2.768;2024-03-22T09:16:35;16.50;50.30
72814;DHT22;60945;48.516;-2.768;2024-03-22T09:19:00;16.50;52.90
72814;DHT22;60945;48.516;-2.768;2024-03-22T09:21:26;17.80;49.40
72814;DHT22;60945;48.516;-2.768;2024-03-22T09:23:52;17.50;50.00
72814;DHT22;60945;48.516;-2.768;2024-03-22T09:26:17;19.20;45.90
72814;DHT22;60945;48.516;-2.768;2024-03-22T09:28:46;18.00;48.10
72814;DHT22;60945;48.516;-2.768;2024-03-22T09:31:11;19.30;45.80
72814;DHT22;60945;48.516;-2.768;2024-03-22T09:33:37;20.20;43.50
72814;DHT22;60945;48.516;-2.768;2024-03-22T09:36:03;20.10;44.60
72814;DHT22;60945;48.516;-2.768;2024-03-22T09:38:29;19.00;44.00
72814;DHT22;60945;48.516;-2.768;2024-03-22T09:40:55;18.70;46.80
72814;DHT22;60945;48.516;-2.768;2024-03-22T09:43:23;19.80;44.40
72814;DHT22;60945;48.516;-2.768;2024-03-22T09:45:49;21.50;41.20
72814;DHT22;60945;48.516;-2.768;2024-03-22T09:48:17;24.40;36.10
72814;DHT22;60945;48.516;-2.768;2024-03-22T09:50:46;25.90;34.20
72814;DHT22;60945;48.516;-2.768;2024-03-22T09:53:13;26.90;31.40
72814;DHT22;60945;48.516;-2.768;2024-03-22T09:55:39;27.40;32.00
72814;DHT22;60945;48.516;-2.768;2024-03-22T09:58:09;27.90;31.60
72814;DHT22;60945;48.516;-2.768;2024-03-22T10:00:35;28.40;29.60
72814;DHT22;60945;48.516;-2.768;2024-03-22T10:03:01;28.00;30.70
72814;DHT22;60945;48.516;-2.768;2024-03-22T10:05:29;29.00;28.60
72814;DHT22;60945;48.516;-2.768;2024-03-22T10:07:55;27.20;30.90
72814;DHT22;60945;48.516;-2.768;2024-03-22T10:10:21;28.00;30.30
72814;DHT22;60945;48.516;-2.768;2024-03-22T10:12:47;27.20;31.20
72814;DHT22;60945;48.516;-2.768;2024-03-22T10:15:13;28.50;29.00
72814;DHT22;60945;48.516;-2.768;2024-03-22T10:17:39;27.90;30.10
72814;DHT22;60945;48.516;-2.768;2024-03-22T10:20:07;30.10;27.30
72814;DHT22;60945;48.516;-2.768;2024-03-22T10:22:57;30.90;27.10
72814;DHT22;60945;48.516;-2.768;2024-03-22T10:25:26;31.50;26.10
72814;DHT22;60945;48.516;-2.768;2024-03-22T10:27:54;32.00;25.80
72814;DHT22;60945;48.516;-2.768;2024-03-22T10:30:21;32.90;25.70
72814;DHT22;60945;48.516;-2.768;2024-03-22T10:32:48;32.00;25.30
72814;DHT22;60945;48.516;-2.768;2024-03-22T10:35:15;26.40;32.10
72814;DHT22;60945;48.516;-2.768;2024-03-22T10:37:41;24.60;33.90
72814;DHT22;60945;48.516;-2.768;2024-03-22T10:40:08;22.80;38.00
72814;DHT22;60945;48.516;-2.768;2024-03-22T10:42:38;21.70;38.60
72814;DHT22;60945;48.516;-2.768;2024-03-22T10:45:05;21.20;39.90
72814;DHT22;60945;48.516;-2.768;2024-03-22T10:47:33;20.90;40.50
72814;DHT22;60945;48.516;-2.768;2024-03-22T10:50:06;22.10;39.60
72814;DHT22;60945;48.516;-2.768;2024-03-22T10:52:38;22.90;38.20
72814;DHT22;60945;48.516;-2.768;2024-03-22T10:55:07;23.00;37.40
72814;DHT22;60945;48.516;-2.768;2024-03-22T10:57:35;23.60;36.40
72814;DHT22;60945;48.516;-2.768;2024-03-22T11:00:04;22.90;38.00
72814;DHT22;60945;48.516;-2.768;2024-03-22T11:02:36;22.90;39.30
72814;DHT22;60945;48.516;-2.768;2024-03-22T11:05:02;22.70;39.00
72814;DHT22;60945;48.516;-2.768;2024-03-22T11:07:31;23.30;38.60
72814;DHT22;60945;48.516;-2.768;2024-03-22T11:09:57;22.80;39.40
72814;DHT22;60945;48.516;-2.768;2024-03-22T11:12:27;22.10;40.50
72814;DHT22;60945;48.516;-2.768;2024-03-22T11:14:56;21.80;41.10
72814;DHT22;60945;48.516;-2.768;2024-03-22T11:17:21;21.30;42.60
72814;DHT22;60945;48.516;-2.768;2024-03-22T11:19:53;20.80;44.30
72814;DHT22;60945;48.516;-2.768;2024-03-22T11:22:19;20.30;46.40
72814;DHT22;60945;48.516;-2.768;2024-03-22T11:24:44;20.00;46.70
72814;DHT22;60945;48.516;-2.768;2024-03-22T11:27:10;19.40;48.70
72814;DHT22;60945;48.516;-2.768;2024-03-22T11:29:37;19.80;48.30
72814;DHT22;60945;48.516;-2.768;2024-03-22T11:32:09;19.60;48.20
72814;DHT22;60945;48.516;-2.768;2024-03-22T11:34:39;19.60;48.30
72814;DHT22;60945;48.516;-2.768;2024-03-22T11:37:06;19.30;49.30
72814;DHT22;60945;48.516;-2.768;2024-03-22T11:39:38;19.40;49.40
72814;DHT22;60945;48.516;-2.768;2024-03-22T11:42:05;19.80;49.30
72814;DHT22;60945;48.516;-2.768;2024-03-22T11:44:33;20.20;48.50
72814;DHT22;60945;48.516;-2.768;2024-03-22T11:47:00;20.50;47.60
72814;DHT22;60945;48.516;-2.768;2024-03-22T11:49:26;20.20;47.70
72814;DHT22;60945;48.516;-2.768;2024-03-22T11:51:52;20.50;47.50
72814;DHT22;60945;48.516;-2.768;2024-03-22T11:54:21;20.80;46.90
72814;DHT22;60945;48.516;-2.768;2024-03-22T11:56:46;20.70;47.30
72814;DHT22;60945;48.516;-2.768;2024-03-22T11:59:12;21.50;46.00
72814;DHT22;60945;48.516;-2.768;2024-03-22T12:01:38;21.50;46.30
72814;DHT22;60945;48.516;-2.768;2024-03-22T12:04:05;21.50;45.20
72814;DHT22;60945;48.516;-2.768;2024-03-22T12:06:34;21.10;46.40
72814;DHT22;60945;48.516;-2.768;2024-03-22T12:09:00;21.20;47.20
72814;DHT22;60945;48.516;-2.768;2024-03-22T12:11:26;20.80;47.30
72814;DHT22;60945;48.516;-2.768;2024-03-22T12:13:51;20.60;48.20
72814;DHT22;60945;48.516;-2.768;2024-03-22T12:16:17;20.30;48.70
72814;DHT22;60945;48.516;-2.768;2024-03-22T12:18:43;20.40;49.30
72814;DHT22;60945;48.516;-2.768;2024-03-22T12:21:08;20.00;50.50
72814;DHT22;60945;48.516;-2.768;2024-03-22T12:23:34;19.40;51.60
72814;DHT22;60945;48.516;-2.768;2024-03-22T12:25:59;19.40;52.40
72814;DHT22;60945;48.516;-2.768;2024-03-22T12:28:25;19.50;52.20
72814;DHT22;60945;48.516;-2.768;2024-03-22T12:30:51;19.50;51.90
72814;DHT22;60945;48.516;-2.768;2024-03-22T12:33:16;19.10;52.50
72814;DHT22;60945;48.516;-2.768;2024-03-22T12:35:42;19.40;52.60
72814;DHT22;60945;48.516;-2.768;2024-03-22T12:38:08;19.10;52.50
72814;DHT22;60945;48.516;-2.768;2024-03-22T12:40:36;19.20;52.70
72814;DHT22;60945;48.516;-2.768;2024-03-22T12:43:03;19.30;53.40
72814;DHT22;60945;48.516;-2.768;2024-03-22T12:45:29;19.40;53.30
72814;DHT22;60945;48.516;-2.768;2024-03-22T12:47:54;19.40;53.60
72814;DHT22;60945;48.516;-2.768;2024-03-22T12:50:21;19.70;53.30
72814;DHT22;60945;48.516;-2.768;2024-03-22T12:52:46;19.60;53.50
72814;DHT22;60945;48.516;-2.768;2024-03-22T12:55:12;19.30;53.70
72814;DHT22;60945;48.516;-2.768;2024-03-22T12:57:38;19.00;54.90
72814;DHT22;60945;48.516;-2.768;2024-03-22T13:00:06;18.80;56.10
72814;DHT22;60945;48.516;-2.768;2024-03-22T13:02:41;18.90;55.90
72814;DHT22;60945;48.516;-2.768;2024-03-22T13:05:07;18.90;56.10
72814;DHT22;60945;48.516;-2.768;2024-03-22T13:07:33;19.00;56.20
72814;DHT22;60945;48.516;-2.768;2024-03-22T13:09:59;18.80;56.80
72814;DHT22;60945;48.516;-2.768;2024-03-22T13:12:29;18.40;57.70
72814;DHT22;60945;48.516;-2.768;2024-03-22T13:15:03;18.10;58.70
72814;DHT22;60945;48.516;-2.768;2024-03-22T13:17:29;18.00;59.20
72814;DHT22;60945;48.516;-2.768;2024-03-22T13:19:54;17.90;60.00
72814;DHT22;60945;48.516;-2.768;2024-03-22T13:22:20;17.90;59.60
72814;DHT22;60945;48.516;-2.768;2024-03-22T13:24:46;17.70;60.50
72814;DHT22;60945;48.516;-2.768;2024-03-22T13:27:12;17.50;62.30
72814;DHT22;60945;48.516;-2.768;2024-03-22T13:29:39;17.40;64.20
72814;DHT22;60945;48.516;-2.768;2024-03-22T13:32:05;17.60;64.70
72814;DHT22;60945;48.516;-2.768;2024-03-22T13:34:36;17.40;65.00
72814;DHT22;60945;48.516;-2.768;2024-03-22T13:37:02;17.60;64.70
72814;DHT22;60945;48.516;-2.768;2024-03-22T13:39:28;17.50;64.50
72814;DHT22;60945;48.516;-2.768;2024-03-22T13:41:58;17.30;65.70
72814;DHT22;60945;48.516;-2.768;2024-03-22T13:44:24;17.10;65.80
72814;DHT22;60945;48.516;-2.768;2024-03-22T13:46:50;16.70;66.80
72814;DHT22;60945;48.516;-2.768;2024-03-22T13:49:19;16.70;67.20
72814;DHT22;60945;48.516;-2.768;2024-03-22T13:51:46;16.60;67.40
72814;DHT22;60945;48.516;-2.768;2024-03-22T13:54:13;16.40;68.80
72814;DHT22;60945;48.516;-2.768;2024-03-22T13:56:39;16.60;68.10
72814;DHT22;60945;48.516;-2.768;2024-03-22T13:59:05;16.50;68.10
72814;DHT22;60945;48.516;-2.768;2024-03-22T14:01:32;16.70;67.70
72814;DHT22;60945;48.516;-2.768;2024-03-22T14:03:58;16.60;67.50
72814;DHT22;60945;48.516;-2.768;2024-03-22T14:06:23;16.80;66.70
72814;DHT22;60945;48.516;-2.768;2024-03-22T14:08:49;16.70;66.70
72814;DHT22;60945;48.516;-2.768;2024-03-22T14:11:15;16.60;66.70
72814;DHT22;60945;48.516;-2.768;2024-03-22T14:13:40;16.70;67.30
72814;DHT22;60945;48.516;-2.768;2024-03-22T14:16:06;16.60;66.90
72814;DHT22;60945;48.516;-2.768;2024-03-22T14:18:33;16.60;67.30
72814;DHT22;60945;48.516;-2.768;2024-03-22T14:21:01;15.10;66.50
72814;DHT22;60945;48.516;-2.768;2024-03-22T14:23:27;14.30;69.20
72814;DHT22;60945;48.516;-2.768;2024-03-22T14:25:54;13.90;70.90
72814;DHT22;60945;48.516;-2.768;2024-03-22T14:28:20;13.70;72.40
72814;DHT22;60945;48.516;-2.768;2024-03-22T14:30:47;13.70;73.30
72814;DHT22;60945;48.516;-2.768;2024-03-22T14:33:12;13.30;76.60
72814;DHT22;60945;48.516;-2.768;2024-03-22T14:35:38;13.20;76.60
72814;DHT22;60945;48.516;-2.768;2024-03-22T14:38:04;12.90;76.70
72814;DHT22;60945;48.516;-2.768;2024-03-22T14:40:29;12.60;79.20
72814;DHT22;60945;48.516;-2.768;2024-03-22T14:42:57;12.50;77.80
72814;DHT22;60945;48.516;-2.768;2024-03-22T14:45:22;12.40;79.10
72814;DHT22;60945;48.516;-2.768;2024-03-22T14:47:48;12.40;78.60
72814;DHT22;60945;48.516;-2.768;2024-03-22T14:50:14;12.70;79.40
72814;DHT22;60945;48.516;-2.768;2024-03-22T14:52:39;12.70;77.50
72814;DHT22;60945;48.516;-2.768;2024-03-22T14:55:05;12.20;79.80
72814;DHT22;60945;48.516;-2.768;2024-03-22T14:57:34;12.20;80.30
72814;DHT22;60945;48.516;-2.768;2024-03-22T15:00:01;12.20;81.70
72814;DHT22;60945;48.516;-2.768;2024-03-22T15:02:27;12.10;82.70
72814;DHT22;60945;48.516;-2.768;2024-03-22T15:04:52;11.70;82.90
72814;DHT22;60945;48.516;-2.768;2024-03-22T15:07:18;11.70;87.90
72814;DHT22;60945;48.516;-2.768;2024-03-22T15:09:44;11.80;87.50